createdAt,value
2022-08-03T00:00:26.509Z,3.03
2022-08-03T00:02:53.472Z,3.13
2022-08-03T00:05:20.173Z,3.20
2022-08-03T00:07:46.662Z,3.15
2022-08-03T00:10:16.063Z,3.20
2022-08-03T00:12:42.543Z,2.78
2022-08-03T00:15:11.339Z,3.40
2022-08-03T00:17:52.949Z,2.83
2022-08-03T00:20:23.733Z,3.05
2022-08-03T00:22:51.642Z,2.88
2022-08-03T00:25:18.363Z,2.72
2022-08-03T00:27:45.589Z,2.80
2022-08-03T00:30:14.801Z,3.42
2022-08-03T00:32:45.048Z,2.90
2022-08-03T00:35:18.260Z,2.95
2022-08-03T00:37:58.921Z,3.10
2022-08-03T00:40:25.663Z,3.20
2022-08-03T00:42:57.322Z,2.58
2022-08-03T00:45:30.041Z,3.00
2022-08-03T00:47:56.843Z,2.80
2022-08-03T00:50:25.980Z,3.03
2022-08-03T00:52:54.640Z,3.25
2022-08-03T00:55:22.108Z,2.72
2022-08-03T00:57:48.944Z,2.70
2022-08-03T01:00:21.125Z,2.78
2022-08-03T01:02:49.917Z,2.70
2022-08-03T01:09:09.602Z,2.70
2022-08-03T01:12:03.967Z,2.88
2022-08-03T01:14:49.478Z,2.60
2022-08-03T01:17:25.232Z,2.25
2022-08-03T01:20:02.202Z,2.45
2022-08-03T01:22:57.912Z,2.40
2022-08-03T01:25:46.146Z,2.70
2022-08-03T01:28:43.592Z,2.42
2022-08-03T01:31:13.175Z,2.63
2022-08-03T01:33:43.724Z,2.78
2022-08-03T01:36:14.809Z,2.75
2022-08-03T01:38:58.271Z,2.78
2022-08-03T01:41:31.859Z,2.78
2022-08-03T01:44:30.310Z,2.75
2022-08-03T01:46:51.343Z,2.65
2022-08-03T01:49:18.274Z,2.65
2022-08-03T01:51:57.888Z,3.00
2022-08-03T01:54:35.029Z,2.75
2022-08-03T01:57:03.468Z,2.80
2022-08-03T01:59:31.560Z,2.88
2022-08-03T02:02:15.582Z,2.72
2022-08-03T02:04:48.948Z,2.28
2022-08-03T02:07:16.407Z,2.65
2022-08-03T02:09:46.881Z,2.72
2022-08-03T02:12:15.175Z,2.80
2022-08-03T02:14:44.299Z,2.67
2022-08-03T02:17:12.490Z,2.83
2022-08-03T02:19:40.585Z,2.80
2022-08-03T02:22:11.158Z,2.33
2022-08-03T02:24:38.186Z,2.30
2022-08-03T02:27:13.656Z,2.67
2022-08-03T02:29:42.023Z,2.42
2022-08-03T02:32:14.481Z,2.50
2022-08-03T02:34:45.153Z,2.45
2022-08-03T02:37:13.499Z,2.67
2022-08-03T02:39:41.907Z,2.50
2022-08-03T02:42:12.206Z,2.17
2022-08-03T02:44:41.557Z,2.30
2022-08-03T02:47:10.882Z,2.85
2022-08-03T02:49:50.432Z,2.72
2022-08-03T02:52:21.594Z,2.80
2022-08-03T02:54:51.153Z,2.80
2022-08-03T02:57:19.866Z,2.90
2022-08-03T02:59:47.549Z,2.85
2022-08-03T03:02:16.937Z,3.30
2022-08-03T03:05:50.621Z,2.83
2022-08-03T03:07:41.715Z,3.22
2022-08-03T03:10:21.423Z,2.75
2022-08-03T03:12:50.093Z,2.90
2022-08-03T03:15:16.699Z,2.88
2022-08-03T03:17:44.296Z,2.83
2022-08-03T03:20:11.956Z,3.17
2022-08-03T03:22:39.954Z,3.63
2022-08-03T03:25:07.383Z,3.25
2022-08-03T03:27:34.497Z,2.90
2022-08-03T03:30:02.496Z,3.80
2022-08-03T03:32:29.553Z,2.83
2022-08-03T03:34:59.177Z,3.28
2022-08-03T03:37:27.015Z,3.10
2022-08-03T03:39:54.752Z,3.20
2022-08-03T03:42:22.017Z,3.45
2022-08-03T03:44:48.761Z,3.90
2022-08-03T03:47:15.337Z,3.30
2022-08-03T03:49:43.686Z,2.97
2022-08-03T03:52:11.111Z,3.10
2022-08-03T03:54:45.462Z,3.78
2022-08-03T03:57:13.093Z,3.40
2022-08-03T03:59:44.130Z,3.30
2022-08-03T04:02:12.225Z,3.45
2022-08-03T04:04:57.521Z,3.40
2022-08-03T04:07:44.047Z,3.80
2022-08-03T04:10:38.675Z,7.47
2022-08-03T04:13:10.182Z,3.45
2022-08-03T04:18:09.722Z,3.22
2022-08-03T04:20:38.804Z,3.40
2022-08-03T04:23:13.551Z,2.88
2022-08-03T04:25:43.540Z,3.17
2022-08-03T04:28:30.870Z,2.78
2022-08-03T04:31:00.155Z,4.00
2022-08-03T04:33:29.356Z,3.45
2022-08-03T04:36:02.940Z,3.83
2022-08-03T04:38:32.793Z,3.50
2022-08-03T04:40:59.839Z,2.88
2022-08-03T04:43:27.841Z,3.55
2022-08-03T04:45:54.846Z,4.10
2022-08-03T04:48:21.514Z,4.13
2022-08-03T04:50:48.203Z,3.88
2022-08-03T04:53:16.343Z,3.33
2022-08-03T04:55:43.129Z,3.42
2022-08-03T04:58:09.789Z,3.50
2022-08-03T05:00:36.303Z,3.38
2022-08-03T05:03:02.787Z,3.92
2022-08-03T05:05:40.672Z,3.47
2022-08-03T05:08:15.797Z,3.10
2022-08-03T05:10:42.278Z,3.45
2022-08-03T05:13:12.901Z,3.30
2022-08-03T05:15:43.279Z,3.50
2022-08-03T05:18:13.893Z,3.67
2022-08-03T05:20:41.346Z,3.45
2022-08-03T05:23:07.954Z,3.20
2022-08-03T05:25:34.492Z,3.55
2022-08-03T05:28:01.401Z,3.33
2022-08-03T05:30:33.510Z,2.78
2022-08-03T05:33:01.721Z,2.70
2022-08-03T05:35:57.366Z,3.08
2022-08-03T05:38:23.950Z,2.85
2022-08-03T05:40:57.262Z,2.28
2022-08-03T05:43:43.050Z,2.58
2022-08-03T05:46:12.204Z,2.72
2022-08-03T05:48:39.898Z,2.97
2022-08-03T05:51:07.708Z,3.05
2022-08-03T05:53:34.951Z,2.35
2022-08-03T05:56:13.090Z,3.15
2022-08-03T05:58:46.644Z,2.30
2022-08-03T06:01:13.527Z,2.70
2022-08-03T06:03:40.172Z,2.50
2022-08-03T06:06:06.686Z,3.30
2022-08-03T06:08:34.031Z,2.70
2022-08-03T06:11:00.571Z,2.55
2022-08-03T06:13:27.139Z,2.40
2022-08-03T06:15:53.690Z,2.78
2022-08-03T06:18:20.254Z,2.28
2022-08-03T06:20:47.084Z,2.35
2022-08-03T06:23:16.015Z,2.92
2022-08-03T06:25:43.051Z,2.50
2022-08-03T06:28:18.947Z,2.50
2022-08-03T06:30:55.608Z,2.47
2022-08-03T06:33:22.138Z,2.33
2022-08-03T06:35:48.695Z,2.50
2022-08-03T06:38:15.158Z,2.08
2022-08-03T06:40:41.850Z,2.10
2022-08-03T06:43:12.199Z,2.42
2022-08-03T06:45:39.396Z,3.15
2022-08-03T06:48:07.992Z,2.30
2022-08-03T06:50:36.246Z,2.40
2022-08-03T06:53:04.085Z,2.67
2022-08-03T06:55:31.122Z,2.63
2022-08-03T06:58:03.185Z,2.30
2022-08-03T07:00:30.910Z,2.13
2022-08-03T07:02:58.500Z,2.80
2022-08-03T07:05:25.401Z,2.10
2022-08-03T07:07:55.836Z,2.22
2022-08-03T07:10:22.427Z,2.47
2022-08-03T07:12:56.023Z,2.63
2022-08-03T07:15:53.687Z,2.28
2022-08-03T07:18:10.155Z,2.60
2022-08-03T07:20:36.750Z,2.00
2022-08-03T07:23:03.665Z,1.80
2022-08-03T07:25:30.154Z,2.08
2022-08-03T07:27:56.667Z,1.60
2022-08-03T07:30:24.739Z,2.00
2022-08-03T07:32:51.527Z,1.80
2022-08-03T07:35:24.211Z,2.00
2022-08-03T07:37:54.958Z,2.10
2022-08-03T07:40:22.404Z,2.20
2022-08-03T07:42:53.421Z,1.38
2022-08-03T07:45:23.284Z,1.67
2022-08-03T07:47:53.514Z,2.08
2022-08-03T07:50:20.850Z,1.90
2022-08-03T07:52:51.470Z,1.77
2022-08-03T07:55:23.232Z,2.00
2022-08-03T07:58:22.029Z,1.92
2022-08-03T08:00:52.864Z,2.00
2022-08-03T08:03:19.887Z,1.63
2022-08-03T08:05:46.354Z,1.70
2022-08-03T08:08:12.854Z,1.30
2022-08-03T08:10:39.341Z,1.30
2022-08-03T08:13:05.838Z,1.70
2022-08-03T08:15:32.668Z,1.50
2022-08-03T08:18:01.426Z,1.73
2022-08-03T08:20:32.089Z,1.65
2022-08-03T08:23:03.631Z,1.67
2022-08-03T08:25:43.834Z,1.27
2022-08-03T08:28:29.927Z,1.60
2022-08-03T08:30:56.774Z,2.05
2022-08-03T08:33:24.089Z,1.55
2022-08-03T08:35:53.097Z,1.75
2022-08-03T08:38:19.662Z,1.88
2022-08-03T08:40:46.270Z,1.50
2022-08-03T08:43:12.759Z,1.58
2022-08-03T08:45:41.045Z,1.85
2022-08-03T08:48:09.461Z,2.35
2022-08-03T08:50:38.726Z,2.30
2022-08-03T08:53:09.755Z,1.58
2022-08-03T08:55:57.967Z,1.70
2022-08-03T08:58:28.546Z,1.50
2022-08-03T09:00:55.161Z,1.50
2022-08-03T09:03:29.320Z,1.42
2022-08-03T09:05:59.710Z,1.70
2022-08-03T09:08:26.319Z,1.48
2022-08-03T09:10:52.885Z,2.35
2022-08-03T09:13:19.525Z,2.20
2022-08-03T09:16:01.260Z,1.80
2022-08-03T09:18:32.223Z,1.63
2022-08-03T09:21:30.193Z,2.42
2022-08-03T09:24:04.143Z,2.33
2022-08-03T09:26:33.159Z,1.30
2022-08-03T09:29:10.868Z,1.55
2022-08-03T09:31:43.507Z,2.10
2022-08-03T09:34:13.195Z,1.65
2022-08-03T09:36:47.805Z,1.65
2022-08-03T09:39:40.665Z,1.27
2022-08-03T09:42:06.870Z,1.30
2022-08-03T09:44:37.595Z,1.50
2022-08-03T09:49:32.926Z,1.73
2022-08-03T09:52:32.823Z,1.40
2022-08-03T09:55:02.788Z,1.35
2022-08-03T09:57:32.566Z,1.60
2022-08-03T10:00:10.976Z,1.50
2022-08-03T10:02:38.258Z,1.30
2022-08-03T10:05:06.571Z,2.15
2022-08-03T10:07:46.709Z,1.45
2022-08-03T10:10:30.838Z,1.30
2022-08-03T10:13:00.010Z,1.75
2022-08-03T10:16:21.427Z,1.63
2022-08-03T10:18:13.726Z,1.70
2022-08-03T10:20:45.598Z,1.70
2022-08-03T10:23:14.296Z,1.17
2022-08-03T10:25:41.436Z,1.20
2022-08-03T10:28:10.978Z,1.30
2022-08-03T10:30:41.107Z,1.35
2022-08-03T10:33:50.891Z,1.33
2022-08-03T10:36:07.405Z,1.25
2022-08-03T10:38:43.268Z,2.05
2022-08-03T10:41:10.937Z,1.58
2022-08-03T10:43:44.606Z,1.83
2022-08-03T10:46:11.132Z,1.05
2022-08-03T10:48:38.223Z,1.02
2022-08-03T10:51:04.952Z,0.93
2022-08-03T10:53:54.804Z,1.90
2022-08-03T10:56:53.394Z,1.50
2022-08-03T10:59:46.585Z,1.10
2022-08-03T11:02:16.857Z,2.13
2022-08-03T11:04:45.184Z,1.60
2022-08-03T11:07:17.853Z,1.45
2022-08-03T11:09:49.732Z,1.10
2022-08-03T11:12:28.988Z,1.65
2022-08-03T11:15:02.477Z,1.10
2022-08-03T11:17:29.186Z,1.58
2022-08-03T11:19:57.971Z,1.00
2022-08-03T11:22:25.383Z,1.20
2022-08-03T11:24:54.077Z,1.17
2022-08-03T11:27:22.740Z,1.23
2022-08-03T11:29:56.877Z,1.42
2022-08-03T11:32:46.600Z,1.38
2022-08-03T11:35:22.295Z,1.38
2022-08-03T11:38:03.193Z,1.10
2022-08-03T11:40:53.847Z,1.33
2022-08-03T11:43:35.089Z,1.40
2022-08-03T11:46:03.076Z,1.35
2022-08-03T11:48:35.479Z,1.20
2022-08-03T11:51:03.834Z,1.25
2022-08-03T11:53:31.192Z,1.15
2022-08-03T11:56:02.471Z,1.23
2022-08-03T11:59:19.012Z,1.30
2022-08-03T12:01:22.981Z,1.40
2022-08-03T12:03:49.989Z,1.50
2022-08-03T12:06:17.820Z,1.17
2022-08-03T12:08:45.911Z,1.63
2022-08-03T12:11:14.927Z,1.27
2022-08-03T12:13:56.725Z,1.30
2022-08-03T12:16:33.832Z,1.45
2022-08-03T12:19:07.026Z,1.70
2022-08-03T12:21:33.663Z,1.30
2022-08-03T12:24:05.379Z,1.10
2022-08-03T12:26:44.911Z,0.95
2022-08-03T12:29:25.865Z,1.30
2022-08-03T12:31:52.519Z,1.30
2022-08-03T12:34:18.973Z,1.52
2022-08-03T12:36:56.595Z,1.80
2022-08-03T12:39:25.147Z,1.55
2022-08-03T12:41:56.084Z,1.15
2022-08-03T12:47:00.041Z,1.10
2022-08-03T12:49:30.429Z,1.60
2022-08-03T12:52:05.271Z,1.35
2022-08-03T12:54:35.882Z,3.58
2022-08-03T12:57:11.107Z,2.10
2022-08-03T12:59:53.359Z,1.50
2022-08-03T13:02:26.215Z,1.63
2022-08-03T13:04:54.691Z,1.42
2022-08-03T13:07:22.506Z,1.58
2022-08-03T13:09:50.100Z,1.90
2022-08-03T13:12:24.963Z,1.90
2022-08-03T13:14:55.388Z,2.15
2022-08-03T13:17:22.333Z,2.70
2022-08-03T13:19:49.577Z,2.00
2022-08-03T13:22:24.973Z,2.00
2022-08-03T13:24:53.504Z,1.30
2022-08-03T13:28:01.070Z,2.47
2022-08-03T13:30:08.663Z,1.90
2022-08-03T13:32:35.879Z,1.13
2022-08-03T13:35:03.060Z,1.20
2022-08-03T13:37:32.207Z,1.30
2022-08-03T13:40:02.689Z,1.73
2022-08-03T13:42:31.875Z,1.50
2022-08-03T13:44:59.057Z,1.17
2022-08-03T13:47:26.056Z,1.60
2022-08-03T13:49:55.833Z,2.17
2022-08-03T13:52:27.727Z,1.50
2022-08-03T13:54:54.595Z,1.30
2022-08-03T13:58:02.298Z,1.20
2022-08-03T14:00:08.618Z,1.40
2022-08-03T14:02:35.218Z,1.17
2022-08-03T14:05:01.944Z,1.40
2022-08-03T14:07:28.582Z,1.50
2022-08-03T14:09:55.026Z,2.00
2022-08-03T14:12:21.486Z,2.03
2022-08-03T14:14:47.955Z,1.40
2022-08-03T14:17:16.375Z,1.50
2022-08-03T14:19:53.353Z,1.45
2022-08-03T14:22:21.140Z,2.20
2022-08-03T14:24:48.072Z,2.67
2022-08-03T14:27:16.327Z,2.00
2022-08-03T14:29:42.998Z,3.65
2022-08-03T14:32:13.240Z,2.35
2022-08-03T14:34:40.578Z,3.15
2022-08-03T14:37:07.099Z,2.05
2022-08-03T14:42:21.725Z,1.75
2022-08-03T14:44:48.327Z,1.52
2022-08-03T14:47:14.945Z,1.40
2022-08-03T14:50:36.014Z,1.30
2022-08-03T14:52:28.762Z,2.67
2022-08-03T14:54:55.252Z,1.90
2022-08-03T14:57:22.106Z,1.20
2022-08-03T14:59:56.268Z,1.45
2022-08-03T15:02:24.898Z,1.17
2022-08-03T15:04:52.197Z,1.40
2022-08-03T15:07:19.219Z,1.98
2022-08-03T15:09:46.008Z,1.77
2022-08-03T15:12:12.539Z,1.60
2022-08-03T15:14:39.016Z,1.58
2022-08-03T15:17:05.907Z,1.50
2022-08-03T15:20:00.818Z,1.30
2022-08-03T15:22:20.645Z,1.50
2022-08-03T15:24:52.026Z,1.50
2022-08-03T15:27:18.806Z,3.40
2022-08-03T15:30:05.485Z,4.32
2022-08-03T15:32:33.606Z,8.48
2022-08-03T15:35:00.644Z,2.40
2022-08-03T15:37:27.839Z,2.13
2022-08-03T15:39:59.558Z,1.40
2022-08-03T15:42:30.766Z,1.70
2022-08-03T15:44:57.416Z,1.40
2022-08-03T15:47:24.204Z,1.90
2022-08-03T15:49:50.701Z,3.17
2022-08-03T15:52:17.170Z,2.13
2022-08-03T15:54:43.671Z,2.78
2022-08-03T15:57:10.209Z,1.77
2022-08-03T15:59:37.045Z,1.58
2022-08-03T16:02:03.876Z,2.22
2022-08-03T16:04:30.534Z,1.90
2022-08-03T16:06:57.154Z,2.42
2022-08-03T16:09:42.166Z,3.70
2022-08-03T16:12:11.841Z,2.40
2022-08-03T16:14:51.759Z,1.92
2022-08-03T16:17:20.196Z,2.05
2022-08-03T16:19:46.879Z,1.80
2022-08-03T16:22:14.527Z,1.90
2022-08-03T16:24:41.336Z,1.70
2022-08-03T16:27:36.810Z,1.60
2022-08-03T16:29:54.593Z,1.90
2022-08-03T16:32:21.214Z,1.58
2022-08-03T16:34:48.214Z,1.60
2022-08-03T16:37:37.473Z,1.73
2022-08-03T16:40:02.105Z,1.70
2022-08-03T16:42:28.684Z,1.92
2022-08-03T16:44:55.254Z,2.05
2022-08-03T16:47:22.780Z,1.63
2022-08-03T16:49:53.662Z,1.60
2022-08-03T16:52:23.642Z,2.47
2022-08-03T16:54:53.276Z,2.65
2022-08-03T16:57:58.779Z,3.20
2022-08-03T17:00:34.664Z,2.67
2022-08-03T17:03:04.661Z,2.67
2022-08-03T17:05:47.048Z,1.80
2022-08-03T17:08:14.626Z,2.03
2022-08-03T17:10:45.056Z,1.92
2022-08-03T17:13:20.752Z,1.98
2022-08-03T17:16:00.976Z,1.88
2022-08-03T17:18:34.012Z,1.52
2022-08-03T17:21:05.870Z,1.50
2022-08-03T17:23:51.649Z,1.65
2022-08-03T17:26:22.214Z,1.95
2022-08-03T17:28:57.261Z,2.42
2022-08-03T17:31:31.753Z,2.67
2022-08-03T17:34:01.967Z,2.53
2022-08-03T17:39:30.788Z,1.80
2022-08-03T17:42:31.631Z,2.35
2022-08-03T17:44:55.624Z,2.45
2022-08-03T17:47:22.919Z,3.90
2022-08-03T17:49:56.874Z,2.88
2022-08-03T17:52:27.565Z,6.68
2022-08-03T17:55:55.230Z,3.78
2022-08-03T17:58:03.329Z,2.40
2022-08-03T18:00:51.812Z,2.22
2022-08-03T18:03:27.807Z,1.58
2022-08-03T18:06:10.403Z,1.77
2022-08-03T18:08:46.134Z,2.38
2022-08-03T18:11:16.290Z,1.88
2022-08-03T18:14:09.939Z,2.35
2022-08-03T18:17:11.331Z,2.05
2022-08-03T18:20:02.713Z,1.80
2022-08-03T18:22:28.567Z,5.45
2022-08-03T18:24:58.993Z,2.30
2022-08-03T18:27:42.778Z,5.50
2022-08-03T18:30:15.190Z,2.50
2022-08-03T18:32:43.382Z,2.45
2022-08-03T18:35:53.571Z,2.42
2022-08-03T18:38:18.835Z,6.85
2022-08-03T18:40:48.686Z,6.70
2022-08-03T18:43:17.483Z,4.78
2022-08-03T18:45:57.410Z,3.58
2022-08-03T18:48:46.353Z,4.65
2022-08-03T18:51:24.227Z,4.22
2022-08-03T18:54:12.078Z,4.00
2022-08-03T18:57:01.895Z,5.70
2022-08-03T18:59:49.516Z,5.30
2022-08-03T19:02:40.909Z,4.20
2022-08-03T19:05:53.676Z,4.70
2022-08-03T19:08:32.607Z,2.65
2022-08-03T19:11:03.292Z,2.55
2022-08-03T19:13:50.409Z,2.47
2022-08-03T19:16:38.860Z,2.40
2022-08-03T19:19:10.529Z,3.13
2022-08-03T19:21:41.546Z,2.65
2022-08-03T19:24:10.391Z,1.95
2022-08-03T19:26:39.491Z,5.22
2022-08-03T19:29:15.219Z,2.65
2022-08-03T19:31:59.039Z,5.03
2022-08-03T19:34:29.121Z,7.18
2022-08-03T19:36:58.365Z,5.00
2022-08-03T19:39:25.580Z,7.35
2022-08-03T19:41:56.066Z,6.95
2022-08-03T19:44:29.056Z,6.13
2022-08-03T19:47:09.643Z,8.07
2022-08-03T19:49:57.114Z,11.32
2022-08-03T19:52:31.302Z,8.40
2022-08-03T19:55:00.507Z,7.18
2022-08-03T19:57:28.707Z,5.53
2022-08-03T19:59:56.489Z,5.63
2022-08-03T20:02:26.480Z,5.13
2022-08-03T20:07:22.891Z,5.07
2022-08-03T20:09:54.561Z,5.57
2022-08-03T20:12:27.338Z,3.05
2022-08-03T20:14:57.371Z,1.95
2022-08-03T20:20:10.968Z,2.50
2022-08-03T20:22:45.471Z,3.10
2022-08-03T20:25:13.220Z,2.90
2022-08-03T20:28:06.705Z,3.25
2022-08-03T20:30:34.410Z,3.00
2022-08-03T20:33:01.122Z,3.58
2022-08-03T20:35:28.772Z,3.50
2022-08-03T20:37:55.607Z,3.42
2022-08-03T20:40:27.377Z,3.53
2022-08-03T20:42:55.243Z,3.78
2022-08-03T20:46:00.112Z,3.63
2022-08-03T20:48:10.060Z,4.20
2022-08-03T20:50:38.703Z,3.70
2022-08-03T20:53:07.181Z,3.50
2022-08-03T20:55:48.283Z,4.82
2022-08-03T20:58:23.764Z,4.10
2022-08-03T21:00:51.438Z,4.70
2022-08-03T21:03:18.415Z,4.50
2022-08-03T21:05:47.709Z,4.68
2022-08-03T21:08:20.664Z,4.70
2022-08-03T21:10:48.872Z,5.22
2022-08-03T21:13:10.282Z,2.30
2022-08-03T21:13:23.609Z,4.72
2022-08-03T21:16:01.091Z,5.50
2022-08-03T21:18:49.480Z,5.97
2022-08-03T21:21:18.937Z,7.13
2022-08-03T21:23:49.920Z,6.88
2022-08-03T21:26:18.864Z,6.97
2022-08-03T21:28:48.030Z,7.20
2022-08-03T21:31:23.694Z,7.15
2022-08-03T21:33:53.673Z,6.75
2022-08-03T21:36:20.353Z,7.53
2022-08-03T21:38:47.619Z,7.05
2022-08-03T21:41:23.481Z,6.88
2022-08-03T21:43:49.909Z,7.47
2022-08-03T21:46:19.512Z,6.95
2022-08-03T21:48:53.574Z,7.20
2022-08-03T21:51:24.700Z,7.97
2022-08-03T21:54:02.727Z,6.97
2022-08-03T21:56:36.296Z,6.30
2022-08-03T21:59:08.065Z,7.53
2022-08-03T22:01:36.223Z,7.22
2022-08-03T22:04:11.823Z,7.82
2022-08-03T22:06:54.370Z,7.85
2022-08-03T22:09:21.172Z,7.15
2022-08-03T22:11:50.806Z,7.47
2022-08-03T22:14:17.385Z,7.75
2022-08-03T22:16:44.765Z,7.70
2022-08-03T22:19:11.491Z,6.93
2022-08-03T22:21:39.751Z,7.28
2022-08-03T22:24:07.187Z,6.13
2022-08-03T22:26:35.868Z,6.97
2022-08-03T22:29:07.093Z,6.85
2022-08-03T22:31:58.669Z,6.50
2022-08-03T22:34:26.779Z,6.20
2022-08-03T22:37:00.041Z,6.00
2022-08-03T22:39:28.974Z,6.25
2022-08-03T22:42:01.239Z,5.05
2022-08-03T22:44:28.153Z,5.75
2022-08-03T22:46:56.593Z,5.47
2022-08-03T22:49:23.646Z,5.70
2022-08-03T22:51:54.383Z,6.00
2022-08-03T22:54:21.071Z,5.20
2022-08-03T22:56:47.851Z,5.45
2022-08-03T22:59:40.283Z,5.90
2022-08-03T23:02:20.381Z,6.05
2022-08-03T23:04:56.923Z,6.15
2022-08-03T23:07:38.855Z,5.65
2022-08-03T23:10:08.753Z,5.90
2022-08-03T23:12:39.725Z,5.75
2022-08-03T23:15:09.235Z,5.75
2022-08-03T23:17:57.228Z,5.80
2022-08-03T23:20:26.636Z,6.10
2022-08-03T23:22:54.440Z,7.10
2022-08-03T23:25:21.984Z,7.07
2022-08-03T23:28:04.849Z,6.47
2022-08-03T23:30:37.129Z,6.05
2022-08-03T23:33:04.474Z,6.20
2022-08-03T23:36:29.595Z,6.38
2022-08-03T23:38:37.157Z,6.25
2022-08-03T23:41:04.893Z,6.80
2022-08-03T23:43:51.154Z,5.97
2022-08-03T23:46:22.116Z,6.03
2022-08-03T23:48:48.680Z,6.35
2022-08-03T23:51:43.619Z,5.80
2022-08-03T23:54:15.970Z,6.30
2022-08-03T23:56:59.120Z,6.53
2022-08-03T23:59:34.562Z,6.25
